Time;durP1;ratioP1;P1;durP2;ratioP2;P2;SDS_P1;SDS_P2;PMS_P1;PMS_P2;Temp;Humidity;BMP_temperature;BMP_pressure;BME280_temperature;BME280_humidity;BME280_pressure;Samples;Min_cycle;Max_cycle;Signal;HPM_P1;HPM_P2
2022/01/27 00:02:07;;;;;;;69.43;41.35;;;26.20;99.90;;;;;;5054205;28;20029;-72
2022/01/27 00:04:39;;;;;;;66.45;40.17;;;26.20;99.90;;;;;;5054527;28;20032;-72
2022/01/27 00:07:06;;;;;;;55.87;39.03;;;26.10;99.90;;;;;;5054837;28;20021;-72
2022/01/27 00:12:08;;;;;;;49.00;35.65;;;26.10;99.90;;;;;;5054489;28;20025;-75
2022/01/27 00:14:44;;;;;;;51.42;35.17;;;26.10;99.90;;;;;;5054853;28;20041;-73
2022/01/27 00:17:14;;;;;;;51.40;33.83;;;26.20;99.90;;;;;;5054580;28;20064;-73
2022/01/27 00:19:42;;;;;;;50.35;36.00;;;26.10;99.90;;;;;;5054056;28;20059;-72
2022/01/27 00:22:09;;;;;;;49.10;33.45;;;26.20;99.90;;;;;;5051607;28;20079;-72
2022/01/27 00:24:35;;;;;;;47.28;32.63;;;26.10;99.90;;;;;;5054208;28;20021;-72
2022/01/27 00:27:02;;;;;;;45.20;32.05;;;26.10;99.90;;;;;;5053953;28;20051;-71
2022/01/27 00:29:28;;;;;;;55.78;31.67;;;26.10;99.90;;;;;;5054383;28;20048;-71
2022/01/27 00:31:55;;;;;;;44.05;30.73;;;26.10;99.90;;;;;;5054419;28;20033;-72
2022/01/27 00:34:22;;;;;;;43.35;30.25;;;26.20;99.90;;;;;;5054166;28;20071;-72
2022/01/27 00:36:48;;;;;;;41.22;30.23;;;26.30;99.90;;;;;;5053910;28;20040;-72
2022/01/27 00:39:15;;;;;;;38.85;29.65;;;26.20;99.90;;;;;;5053770;28;20387;-71
2022/01/27 00:41:41;;;;;;;41.13;30.38;;;26.30;99.90;;;;;;5054022;28;20268;-71
2022/01/27 00:44:08;;;;;;;39.92;28.88;;;26.30;99.90;;;;;;5054124;28;20423;-71
2022/01/27 00:46:36;;;;;;;41.28;28.52;;;26.40;99.90;;;;;;5053697;28;20146;-71
2022/01/27 00:49:03;;;;;;;46.78;27.70;;;26.40;99.90;;;;;;5053915;28;20363;-71
2022/01/27 00:51:35;;;;;;;41.83;28.23;;;26.50;99.90;;;;;;5054103;28;20385;-72
2022/01/27 00:54:09;;;;;;;;;;;26.50;99.90;;;;;;5054075;28;20473;-72
2022/01/27 01:01:45;;;;;;;39.50;25.92;;;26.60;99.90;;;;;;5053112;28;20033;-71
2022/01/27 01:04:12;;;;;;;40.90;30.08;;;26.70;99.90;;;;;;5033999;28;20056;-73
2022/01/27 01:06:46;;;;;;;42.83;30.30;;;26.70;99.90;;;;;;5033770;28;20017;-72
2022/01/27 01:14:36;;;;;;;45.03;32.22;;;26.80;99.90;;;;;;5059241;28;20024;-72
2022/01/27 01:17:29;;;;;;;44.90;30.55;;;26.80;99.90;;;;;;5054289;28;20029;-73
2022/01/27 01:35:10;;;;;;;61.30;43.88;;;27.30;99.90;;;;;;5059994;28;20020;-72
2022/01/27 01:37:40;;;;;;;60.97;45.72;;;27.30;99.90;;;;;;5073077;28;20021;-71
2022/01/27 01:40:11;;;;;;;64.82;45.92;;;27.30;99.90;;;;;;5073086;28;20051;-73
2022/01/27 01:42:38;;;;;;;72.10;49.63;;;27.40;99.90;;;;;;5067996;28;20568;-72
2022/01/27 01:45:07;;;;;;;62.90;47.35;;;27.50;99.90;;;;;;5053087;28;20025;-72
2022/01/27 01:47:34;;;;;;;61.65;49.92;;;27.60;99.90;;;;;;5053211;28;20017;-73
2022/01/27 01:50:01;;;;;;;75.40;55.72;;;27.70;99.90;;;;;;5053054;28;20021;-73
2022/01/27 01:52:27;;;;;;;71.00;53.35;;;27.70;99.90;;;;;;5053189;28;20478;-72
2022/01/27 01:54:57;;;;;;;86.50;61.97;;;27.80;99.90;;;;;;5052956;28;20025;-73
2022/01/27 01:57:24;;;;;;;76.18;62.28;;;27.90;99.90;;;;;;5052941;28;20108;-71
2022/01/27 01:59:51;;;;;;;78.55;61.33;;;28.00;99.90;;;;;;5053726;28;20032;-70
2022/01/27 02:02:18;;;;;;;107.95;82.18;;;28.00;99.90;;;;;;5053048;28;20037;-71
2022/01/27 02:04:44;;;;;;;87.20;64.13;;;28.00;99.90;;;;;;5053041;28;20106;-70
2022/01/27 02:07:30;;;;;;;76.18;55.20;;;28.10;99.90;;;;;;5053104;28;20025;-71
2022/01/27 02:17:59;;;;;;;67.47;49.88;;;28.10;99.90;;;;;;5056655;28;20107;-72
2022/01/27 02:20:28;;;;;;;56.63;43.60;;;28.20;99.90;;;;;;5055080;28;20052;-72
2022/01/27 02:22:54;;;;;;;56.95;42.40;;;28.40;99.90;;;;;;5055842;28;20021;-71
2022/01/27 02:25:21;;;;;;;47.85;39.22;;;28.40;99.90;;;;;;5056487;28;20491;-71
2022/01/27 02:27:53;;;;;;;49.97;38.08;;;28.40;99.90;;;;;;5056464;28;20132;-73
2022/01/27 02:30:19;;;;;;;43.65;34.08;;;28.40;99.90;;;;;;5069424;28;20043;-72
2022/01/27 02:32:46;;;;;;;42.13;34.58;;;28.50;99.90;;;;;;5055507;28;20030;-70
2022/01/27 02:35:12;;;;;;;47.35;36.38;;;28.50;99.90;;;;;;5056422;28;20014;-70
2022/01/27 02:37:39;;;;;;;46.30;38.20;;;28.60;99.90;;;;;;5055999;28;20049;-71
2022/01/27 02:40:06;;;;;;;45.35;38.55;;;28.70;99.90;;;;;;5056099;28;20048;-72
2022/01/27 02:42:35;;;;;;;45.83;37.97;;;28.70;99.90;;;;;;5055193;28;20121;-73
2022/01/27 02:45:12;;;;;;;54.25;37.90;;;28.60;99.90;;;;;;5056072;28;20021;-76
2022/01/27 02:47:39;;;;;;;79.40;62.08;;;28.70;99.90;;;;;;5056145;28;20110;-73
2022/01/27 02:50:07;;;;;;;61.85;45.05;;;28.80;99.90;;;;;;5054254;28;20025;-73
2022/01/27 02:52:34;;;;;;;57.92;46.95;;;28.80;99.90;;;;;;5055745;28;20473;-71
2022/01/27 02:55:01;;;;;;;45.25;38.63;;;28.70;99.90;;;;;;5055881;28;20495;-74
2022/01/27 02:57:27;;;;;;;47.92;37.35;;;28.70;99.90;;;;;;5055714;28;20477;-74
2022/01/27 02:59:54;;;;;;;45.35;36.00;;;28.70;99.90;;;;;;5055669;28;20103;-73
2022/01/27 03:02:22;;;;;;;44.15;35.35;;;28.80;99.90;;;;;;5055907;28;20021;-72
2022/01/27 03:04:49;;;;;;;44.15;36.25;;;28.80;99.90;;;;;;5055477;28;20063;-74
2022/01/27 03:07:16;;;;;;;37.00;29.65;;;28.80;99.90;;;;;;5050226;28;20023;-73
2022/01/27 03:09:43;;;;;;;35.38;28.60;;;28.80;99.90;;;;;;5049903;28;20036;-74
2022/01/27 03:12:11;;;;;;;37.25;27.27;;;29.00;99.90;;;;;;5059419;28;20469;-73
2022/01/27 03:14:40;;;;;;;36.28;28.52;;;29.10;99.90;;;;;;5055892;28;20490;-75
2022/01/27 03:17:08;;;;;;;34.67;30.35;;;29.20;99.90;;;;;;5056047;28;20017;-74
2022/01/27 03:19:36;;;;;;;31.67;28.02;;;29.30;99.90;;;;;;5055959;28;20055;-75
2022/01/27 03:22:04;;;;;;;30.88;26.52;;;29.20;99.90;;;;;;5056073;28;20466;-74
2022/01/27 03:24:31;;;;;;;33.38;26.20;;;29.20;99.90;;;;;;5055671;28;20025;-74
2022/01/27 03:26:58;;;;;;;30.63;25.75;;;29.30;99.90;;;;;;5054981;28;20055;-75
2022/01/27 03:29:25;;;;;;;29.27;26.10;;;29.40;99.90;;;;;;5055567;28;20104;-75
2022/01/27 03:31:53;;;;;;;33.17;26.60;;;29.50;99.90;;;;;;5056165;28;20139;-74
2022/01/27 03:34:20;;;;;;;32.33;28.08;;;29.60;99.90;;;;;;5055747;28;20025;-74
2022/01/27 03:36:47;;;;;;;35.10;26.60;;;29.60;99.90;;;;;;5055904;28;20041;-73
2022/01/27 03:39:19;;;;;;;32.78;28.42;;;29.60;99.90;;;;;;5054719;28;20044;-74
2022/01/27 03:41:50;;;;;;;;;;;29.70;99.90;;;;;;5047732;28;20112;-73
2022/01/27 03:44:19;;;;;;;50.20;35.33;;;29.80;99.90;;;;;;5055727;28;19915;-74
2022/01/27 03:46:45;;;;;;;43.53;33.00;;;29.80;99.90;;;;;;5055134;28;20347;-73
2022/01/27 03:49:12;;;;;;;41.50;32.83;;;29.90;99.90;;;;;;5064645;28;20087;-74
2022/01/27 03:51:39;;;;;;;39.35;26.17;;;29.90;99.90;;;;;;5054933;28;20051;-74
2022/01/27 03:54:05;;;;;;;44.28;30.70;;;30.10;99.90;;;;;;5055309;28;20020;-75
2022/01/27 03:56:32;;;;;;;54.42;38.90;;;30.10;99.90;;;;;;5055475;28;20082;-76
2022/01/27 03:58:59;;;;;;;64.22;42.75;;;30.10;99.90;;;;;;5055919;28;20116;-75
2022/01/27 04:01:25;;;;;;;84.28;53.45;;;29.90;99.90;;;;;;5049675;28;20470;-75
2022/01/27 04:03:57;;;;;;;38.00;27.98;;;29.90;99.90;;;;;;5051072;28;20021;-75
2022/01/27 04:06:32;;;;;;;36.67;27.02;;;30.00;99.90;;;;;;5054862;28;20022;-73
2022/01/27 04:08:59;;;;;;;43.20;27.17;;;30.00;99.90;;;;;;5053764;28;20075;-75
2022/01/27 04:11:27;;;;;;;38.67;29.13;;;30.00;99.90;;;;;;5054336;28;20029;-74
2022/01/27 04:13:54;;;;;;;40.17;28.75;;;30.10;99.90;;;;;;5054508;28;20021;-71
2022/01/27 04:16:20;;;;;;;33.33;27.23;;;30.20;99.90;;;;;;5054561;28;20441;-73
2022/01/27 04:18:47;;;;;;;33.90;27.00;;;30.30;99.90;;;;;;5054556;28;20104;-74
2022/01/27 04:21:14;;;;;;;39.30;25.48;;;30.30;99.90;;;;;;5054382;28;20025;-71
2022/01/27 04:23:41;;;;;;;37.47;29.17;;;30.40;99.90;;;;;;5054121;28;20021;-73
2022/01/27 04:26:09;;;;;;;33.00;24.73;;;30.40;99.90;;;;;;5053050;28;20036;-71
2022/01/27 04:28:37;;;;;;;41.88;24.55;;;30.40;99.90;;;;;;5053689;28;20024;-72
2022/01/27 04:31:07;;;;;;;31.48;22.85;;;30.60;99.20;;;;;;5049100;28;20389;-71
2022/01/27 04:33:35;;;;;;;39.45;25.13;;;30.60;97.00;;;;;;5048492;28;20474;-70
2022/01/27 04:36:08;;;;;;;37.00;25.95;;;30.50;97.50;;;;;;5043134;28;20371;-71
2022/01/27 04:46:32;;;;;;;31.42;23.25;;;30.90;95.50;;;;;;5048473;28;20025;-66
2022/01/27 04:49:00;;;;;;;41.47;29.20;;;30.90;95.40;;;;;;5047389;28;20044;-68
2022/01/27 04:51:27;;;;;;;36.90;25.93;;;30.70;96.10;;;;;;5049378;28;20029;-68
2022/01/27 04:56:22;;;;;;;37.05;27.50;;;30.70;95.70;;;;;;5048264;28;20501;-66
2022/01/27 04:58:54;;;;;;;25.80;22.00;;;30.80;95.00;;;;;;5052894;28;20525;-72
2022/01/27 05:01:27;;;;;;;24.95;21.35;;;31.00;95.40;;;;;;5053471;28;20116;-71
2022/01/27 05:04:00;;;;;;;26.38;22.13;;;31.00;95.20;;;;;;5052846;28;20494;-69
2022/01/27 05:06:26;;;;;;;24.50;18.67;;;31.10;94.40;;;;;;5065157;28;20069;-67
2022/01/27 05:08:54;;;;;;;27.80;20.60;;;31.20;91.80;;;;;;5057382;28;20021;-67
2022/01/27 05:11:29;;;;;;;31.58;20.48;;;31.20;92.60;;;;;;5045710;28;20027;-68
2022/01/27 05:16:22;;;;;;;27.48;22.08;;;31.40;91.20;;;;;;5061777;28;20545;-68
2022/01/27 05:18:48;;;;;;;27.00;20.52;;;31.40;91.00;;;;;;5056850;28;20790;-72
2022/01/27 05:21:15;;;;;;;41.47;24.10;;;31.40;90.40;;;;;;5059246;28;20033;-68
2022/01/27 05:23:42;;;;;;;29.10;21.45;;;31.50;90.30;;;;;;5056161;28;20048;-67
2022/01/27 05:26:08;;;;;;;53.47;29.02;;;31.50;88.80;;;;;;5060965;28;20032;-70
2022/01/27 05:28:35;;;;;;;35.97;24.00;;;31.50;91.20;;;;;;5059532;28;20108;-70
2022/01/27 05:31:01;;;;;;;34.17;24.88;;;31.50;90.10;;;;;;5061943;28;20489;-71
2022/01/27 05:33:28;;;;;;;35.75;25.70;;;31.60;91.10;;;;;;5061503;28;20541;-69
2022/01/27 05:35:55;;;;;;;40.90;28.80;;;31.60;86.90;;;;;;5064246;28;20036;-70
2022/01/27 05:38:21;;;;;;;30.90;24.33;;;31.50;90.00;;;;;;5053504;28;20415;-74
2022/01/27 05:40:48;;;;;;;28.55;22.05;;;31.50;90.60;;;;;;5052865;28;20052;-74
2022/01/27 05:43:14;;;;;;;45.67;35.47;;;31.50;90.50;;;;;;5051152;28;20014;-72
2022/01/27 05:45:41;;;;;;;39.92;30.13;;;31.50;90.70;;;;;;5054132;28;20029;-72
2022/01/27 05:48:08;;;;;;;35.72;25.80;;;31.40;90.60;;;;;;5050548;28;20185;-75
2022/01/27 05:50:35;;;;;;;36.30;27.73;;;31.40;90.90;;;;;;5056686;28;20053;-74
2022/01/27 05:53:02;;;;;;;23.17;19.67;;;31.50;89.30;;;;;;5057387;28;20082;-71
2022/01/27 05:55:29;;;;;;;29.40;24.17;;;31.60;87.20;;;;;;5057786;28;20104;-71
2022/01/27 05:57:55;;;;;;;30.48;23.05;;;31.60;86.50;;;;;;5057527;28;20381;-69
2022/01/27 06:00:22;;;;;;;25.40;19.55;;;31.60;88.00;;;;;;5061335;28;20240;-71
2022/01/27 06:02:49;;;;;;;33.40;25.25;;;31.70;86.90;;;;;;5058368;28;20196;-71
2022/01/27 06:05:15;;;;;;;25.73;19.50;;;31.80;87.20;;;;;;5057705;28;20037;-70
2022/01/27 06:07:42;;;;;;;28.25;19.15;;;31.90;86.00;;;;;;5055601;28;20107;-70
2022/01/27 06:10:09;;;;;;;41.92;26.98;;;32.10;84.70;;;;;;5052899;28;20026;-70
2022/01/27 06:12:45;;;;;;;27.40;19.83;;;32.20;85.30;;;;;;5053982;28;20068;-75
2022/01/27 06:15:11;;;;;;;35.88;27.65;;;32.20;82.70;;;;;;5054607;28;20017;-71
2022/01/27 06:17:38;;;;;;;24.20;18.20;;;32.30;81.70;;;;;;5044703;28;20041;-74
2022/01/27 06:20:05;;;;;;;26.42;20.02;;;32.30;83.30;;;;;;5044181;28;20013;-72
2022/01/27 06:22:32;;;;;;;23.98;17.67;;;32.20;83.00;;;;;;5050932;28;20385;-72
2022/01/27 06:24:58;;;;;;;22.73;17.38;;;32.10;82.70;;;;;;5054813;28;20083;-72
2022/01/27 06:27:25;;;;;;;22.77;17.77;;;32.20;82.70;;;;;;5051403;28;20045;-73
2022/01/27 06:29:52;;;;;;;27.08;16.52;;;32.20;81.80;;;;;;5052409;28;20036;-73
2022/01/27 06:32:18;;;;;;;21.48;17.08;;;32.20;80.30;;;;;;5056347;28;20032;-74
2022/01/27 06:34:46;;;;;;;23.35;18.60;;;32.20;79.80;;;;;;5055547;28;20029;-73
2022/01/27 06:37:13;;;;;;;25.50;19.15;;;32.30;77.70;;;;;;5056409;28;20086;-73
2022/01/27 06:39:40;;;;;;;27.27;17.60;;;32.30;79.60;;;;;;5055362;28;20100;-74
2022/01/27 06:42:08;;;;;;;21.83;18.55;;;32.40;80.60;;;;;;5043132;28;20064;-74
2022/01/27 06:44:36;;;;;;;22.85;19.73;;;32.40;79.30;;;;;;5055228;28;20025;-70
2022/01/27 06:47:03;;;;;;;23.98;18.80;;;32.30;78.70;;;;;;5056289;28;20116;-69
2022/01/27 06:49:29;;;;;;;25.83;18.40;;;32.30;80.30;;;;;;5055402;28;20029;-72
2022/01/27 06:51:56;;;;;;;28.90;20.52;;;32.30;77.00;;;;;;5051331;28;20121;-71
2022/01/27 06:54:22;;;;;;;43.90;32.75;;;32.30;78.80;;;;;;5051428;28;20044;-72
2022/01/27 06:56:49;;;;;;;38.50;28.33;;;32.20;78.70;;;;;;5048849;28;20029;-74
2022/01/27 06:59:16;;;;;;;26.80;21.15;;;32.30;80.20;;;;;;5051648;28;20396;-75
2022/01/27 07:01:42;;;;;;;25.23;19.83;;;32.30;79.30;;;;;;5049833;28;20484;-70
2022/01/27 07:04:09;;;;;;;32.70;22.58;;;32.50;79.70;;;;;;5054371;28;20103;-70
2022/01/27 07:06:36;;;;;;;27.15;21.77;;;32.50;80.50;;;;;;5057976;28;20048;-74
2022/01/27 07:09:04;;;;;;;28.38;19.00;;;32.60;80.90;;;;;;5054435;28;20069;-72
2022/01/27 07:11:30;;;;;;;28.10;18.67;;;32.60;77.20;;;;;;5061569;28;20094;-73
2022/01/27 07:13:57;;;;;;;22.13;16.55;;;32.60;75.10;;;;;;5066165;28;20028;-75
2022/01/27 07:16:24;;;;;;;22.38;17.65;;;32.50;77.20;;;;;;5063499;28;20029;-75
2022/01/27 07:18:52;;;;;;;20.90;15.40;;;32.40;78.10;;;;;;5071881;28;20465;-72
2022/01/27 07:21:20;;;;;;;22.83;17.20;;;32.30;77.00;;;;;;5062765;28;20079;-73
2022/01/27 07:23:47;;;;;;;20.02;15.63;;;32.30;76.50;;;;;;5060271;28;20382;-72
2022/01/27 07:26:14;;;;;;;22.63;15.52;;;32.40;77.80;;;;;;5061304;28;20027;-78
2022/01/27 07:28:42;;;;;;;20.05;15.40;;;32.50;75.80;;;;;;5058157;28;20028;-75
2022/01/27 07:31:09;;;;;;;18.40;15.80;;;32.50;76.50;;;;;;5057745;28;20028;-72
2022/01/27 07:33:35;;;;;;;19.17;15.80;;;32.50;76.50;;;;;;5057118;28;20029;-73
2022/01/27 07:36:02;;;;;;;23.63;16.05;;;32.60;76.80;;;;;;5059450;28;20028;-74
2022/01/27 07:38:28;;;;;;;19.33;17.25;;;32.60;77.10;;;;;;5060616;28;20077;-73
2022/01/27 07:40:55;;;;;;;19.55;17.45;;;32.50;75.50;;;;;;5070625;28;20036;-75
2022/01/27 07:43:22;;;;;;;16.08;14.35;;;32.60;75.60;;;;;;5065955;28;20024;-75
2022/01/27 07:45:49;;;;;;;18.33;15.60;;;32.60;73.60;;;;;;5060649;28;20009;-72
2022/01/27 07:48:16;;;;;;;20.80;16.00;;;32.70;75.50;;;;;;5062759;28;20021;-75
2022/01/27 07:50:43;;;;;;;22.35;16.95;;;32.80;75.40;;;;;;5062333;28;20187;-72
2022/01/27 07:53:10;;;;;;;22.58;18.05;;;32.80;74.20;;;;;;5055073;28;20286;-73
2022/01/27 07:55:37;;;;;;;17.90;14.18;;;32.80;75.10;;;;;;5050590;28;20033;-75
2022/01/27 07:58:03;;;;;;;18.30;14.88;;;32.70;72.90;;;;;;5054831;28;20075;-73
2022/01/27 08:00:30;;;;;;;15.85;14.13;;;32.70;74.10;;;;;;5068516;28;20033;-74
2022/01/27 08:02:56;;;;;;;21.92;15.55;;;32.70;72.50;;;;;;5053164;28;20104;-75
2022/01/27 08:05:23;;;;;;;19.63;16.38;;;32.70;73.90;;;;;;5053847;28;20087;-73
2022/01/27 08:07:49;;;;;;;17.40;13.80;;;32.70;73.80;;;;;;5053869;28;20078;-76
2022/01/27 08:10:16;;;;;;;18.92;14.38;;;32.70;73.20;;;;;;5053807;28;20017;-73
2022/01/27 08:12:43;;;;;;;18.85;15.57;;;32.70;74.10;;;;;;5054069;28;20027;-77
2022/01/27 08:15:11;;;;;;;20.38;15.88;;;32.80;72.70;;;;;;5054364;28;20024;-72
2022/01/27 08:17:39;;;;;;;22.20;15.55;;;32.70;74.10;;;;;;5054261;28;20289;-75
2022/01/27 08:20:06;;;;;;;19.50;14.95;;;32.60;74.00;;;;;;5054720;28;20480;-73
2022/01/27 08:22:37;;;;;;;25.35;16.90;;;32.70;72.70;;;;;;5051620;28;20043;-74
2022/01/27 08:25:04;;;;;;;20.23;16.80;;;32.70;72.80;;;;;;5053729;28;20089;-71
2022/01/27 08:27:32;;;;;;;24.35;17.65;;;32.70;72.30;;;;;;5054988;28;20036;-75
2022/01/27 08:30:03;;;;;;;25.88;19.48;;;32.60;72.80;;;;;;5054033;28;20025;-72
2022/01/27 08:32:46;;;;;;;20.35;14.88;;;32.60;73.70;;;;;;5046767;28;20025;-72
2022/01/27 08:35:15;;;;;;;19.42;16.25;;;32.60;73.20;;;;;;5043988;28;20120;-77
2022/01/27 08:37:42;;;;;;;33.10;22.75;;;32.70;74.00;;;;;;5045284;28;20037;-75
2022/01/27 08:40:11;;;;;;;22.70;17.77;;;32.80;74.80;;;;;;5047765;28;20147;-74
2022/01/27 08:42:40;;;;;;;25.23;18.33;;;32.80;74.90;;;;;;5053651;28;20017;-74
2022/01/27 08:45:09;;;;;;;23.63;19.02;;;32.90;74.70;;;;;;5043187;28;20018;-72
2022/01/27 08:47:36;;;;;;;25.55;18.92;;;32.90;74.10;;;;;;5047933;28;20032;-73
2022/01/27 08:50:05;;;;;;;21.33;17.05;;;32.90;73.30;;;;;;5047346;28;20025;-74
2022/01/27 08:52:31;;;;;;;21.05;17.20;;;32.90;72.30;;;;;;5045796;28;20052;-74
2022/01/27 08:54:58;;;;;;;29.88;19.23;;;32.90;71.00;;;;;;5046181;28;20029;-73
2022/01/27 08:57:25;;;;;;;37.78;24.60;;;32.90;72.50;;;;;;5047370;28;20037;-72
2022/01/27 08:59:53;;;;;;;25.83;21.33;;;32.90;71.60;;;;;;5045217;28;20025;-74
2022/01/27 09:02:20;;;;;;;53.40;39.92;;;32.90;71.30;;;;;;5049082;28;20077;-77
2022/01/27 09:04:48;;;;;;;34.78;26.35;;;32.80;71.00;;;;;;5044902;28;20045;-72
2022/01/27 09:07:15;;;;;;;27.48;18.25;;;32.90;70.80;;;;;;5048068;28;20446;-75
2022/01/27 09:09:43;;;;;;;43.15;33.22;;;32.80;70.90;;;;;;5048449;28;20029;-71
2022/01/27 09:12:11;;;;;;;73.75;57.58;;;32.80;72.30;;;;;;5049505;28;20036;-73
2022/01/27 09:14:40;;;;;;;33.05;27.60;;;32.80;72.10;;;;;;5047649;28;20057;-75
2022/01/27 09:17:08;;;;;;;43.47;29.35;;;32.80;72.20;;;;;;5052508;28;20095;-74
2022/01/27 09:19:38;;;;;;;32.85;24.85;;;32.80;72.60;;;;;;5052927;28;20396;-72
2022/01/27 09:22:08;;;;;;;32.15;21.33;;;32.70;72.80;;;;;;5065014;28;20035;-76
2022/01/27 09:24:51;;;;;;;29.35;24.30;;;32.80;73.30;;;;;;5053459;28;20032;-73
2022/01/27 09:27:19;;;;;;;26.42;18.95;;;32.90;74.00;;;;;;5064902;28;20017;-75
2022/01/27 09:29:47;;;;;;;24.85;18.20;;;32.90;72.10;;;;;;5064876;28;20021;-73
2022/01/27 09:32:15;;;;;;;27.75;19.50;;;32.80;72.00;;;;;;5053756;28;20087;-74
2022/01/27 09:34:43;;;;;;;49.05;40.03;;;32.90;72.40;;;;;;5053298;28;20048;-75
2022/01/27 09:37:11;;;;;;;32.97;27.25;;;32.90;73.10;;;;;;5054588;28;20035;-74
2022/01/27 09:39:38;;;;;;;49.47;41.50;;;32.90;72.50;;;;;;5053979;28;20048;-72
2022/01/27 09:42:07;;;;;;;32.33;24.48;;;32.90;71.40;;;;;;5052511;28;20025;-73
2022/01/27 09:44:36;;;;;;;21.90;16.77;;;32.90;72.40;;;;;;5053438;28;20021;-74
2022/01/27 09:47:07;;;;;;;21.20;16.10;;;32.90;72.10;;;;;;5054396;28;20017;-72
2022/01/27 09:49:40;;;;;;;21.95;15.93;;;32.90;71.00;;;;;;5053793;28;20021;-72
2022/01/27 09:52:07;;;;;;;25.58;19.50;;;32.90;72.10;;;;;;5056019;28;20060;-74
2022/01/27 09:54:35;;;;;;;31.30;24.10;;;32.90;73.20;;;;;;5053528;28;20025;-73
2022/01/27 09:57:03;;;;;;;34.80;28.10;;;32.90;72.40;;;;;;5053393;28;20021;-73
2022/01/27 09:59:30;;;;;;;28.45;24.42;;;32.90;73.20;;;;;;5054887;28;20192;-71
2022/01/27 10:02:04;;;;;;;44.83;38.55;;;33.00;73.20;;;;;;5050202;28;20021;-70
2022/01/27 10:04:52;;;;;;;37.13;31.08;;;33.00;71.90;;;;;;5047816;28;20048;-70
2022/01/27 10:07:27;;;;;;;37.65;29.33;;;33.00;73.10;;;;;;5054498;28;20078;-72
2022/01/27 10:10:10;;;;;;;127.32;93.07;;;32.90;75.80;;;;;;5053348;28;20012;-72
2022/01/27 10:12:48;;;;;;;54.72;44.90;;;32.80;76.30;;;;;;5057887;28;20032;-73
2022/01/27 10:15:19;;;;;;;44.53;32.97;;;32.80;77.00;;;;;;5056134;28;20476;-72
2022/01/27 10:18:03;;;;;;;48.42;38.88;;;32.80;78.40;;;;;;5057339;28;20389;-71
2022/01/27 10:20:30;;;;;;;40.92;33.05;;;32.80;77.70;;;;;;5063084;28;20029;-74
2022/01/27 10:23:13;;;;;;;27.83;21.15;;;32.80;76.50;;;;;;5061143;28;20433;-71
2022/01/27 10:25:49;;;;;;;25.30;19.20;;;32.80;76.80;;;;;;5058590;28;20074;-72
2022/01/27 10:28:35;;;;;;;24.00;18.52;;;32.70;76.80;;;;;;5060450;28;20086;-72
2022/01/27 10:31:19;;;;;;;24.55;17.80;;;32.70;78.00;;;;;;5059910;28;20056;-72
2022/01/27 10:33:49;;;;;;;24.33;20.10;;;32.70;78.50;;;;;;5060766;28;20020;-71
2022/01/27 10:36:17;;;;;;;27.52;20.17;;;32.70;78.60;;;;;;5056892;28;20485;-73
2022/01/27 10:38:44;;;;;;;29.75;21.80;;;32.60;79.20;;;;;;5067353;28;20032;-70
2022/01/27 10:41:10;;;;;;;30.80;21.13;;;32.60;79.60;;;;;;5065284;28;20021;-72
2022/01/27 10:43:37;;;;;;;32.58;23.10;;;32.60;79.60;;;;;;5065906;28;20048;-72
2022/01/27 10:46:27;;;;;;;68.53;55.92;;;32.50;79.70;;;;;;5070278;28;20023;-72
2022/01/27 10:49:07;;;;;;;45.95;33.13;;;32.50;79.60;;;;;;5064179;28;20374;-73
2022/01/27 10:51:43;;;;;;;46.35;32.63;;;32.50;79.70;;;;;;5062802;28;20108;-72
2022/01/27 10:54:22;;;;;;;48.40;34.65;;;32.50;79.30;;;;;;5062082;28;20355;-73
2022/01/27 10:56:49;;;;;;;46.83;32.70;;;32.40;80.70;;;;;;5064966;28;20025;-70
2022/01/27 10:59:18;;;;;;;48.70;33.17;;;32.40;80.90;;;;;;5055837;28;20493;-68
2022/01/27 11:01:50;;;;;;;50.67;29.70;;;32.40;80.60;;;;;;5055889;28;20067;-73
2022/01/27 11:04:19;;;;;;;52.92;38.88;;;32.30;80.90;;;;;;5056398;28;20032;-68
2022/01/27 11:06:58;;;;;;;60.85;41.72;;;32.30;81.10;;;;;;5056048;28;20454;-69
2022/01/27 11:09:27;;;;;;;45.78;34.22;;;32.20;80.60;;;;;;5055703;28;20395;-75
2022/01/27 11:11:56;;;;;;;49.70;34.28;;;32.10;81.20;;;;;;5056219;28;20036;-70
2022/01/27 11:14:25;;;;;;;47.65;32.22;;;32.10;81.50;;;;;;5055748;28;20033;-72
2022/01/27 11:16:56;;;;;;;51.28;31.65;;;32.10;80.40;;;;;;5064206;28;20538;-69
2022/01/27 11:22:00;;;;;;;92.30;64.05;;;31.90;82.10;;;;;;5062527;28;20040;-69
2022/01/27 11:24:43;;;;;;;79.45;53.20;;;31.70;82.80;;;;;;5063946;28;20598;-69
2022/01/27 11:27:14;;;;;;;46.33;31.35;;;31.60;81.80;;;;;;5062678;28;20239;-69
2022/01/27 11:30:01;;;;;;;46.83;32.45;;;31.60;82.70;;;;;;5066424;28;20496;-69
2022/01/27 11:32:41;;;;;;;57.88;37.72;;;31.50;82.30;;;;;;5063353;28;20033;-69
2022/01/27 11:35:22;;;;;;;56.55;39.53;;;31.30;83.10;;;;;;5042086;28;20032;-69
2022/01/27 11:37:52;;;;;;;64.37;43.40;;;31.30;83.60;;;;;;5062937;28;20032;-71
2022/01/27 11:40:20;;;;;;;70.80;53.97;;;31.20;82.70;;;;;;5069546;28;20051;-71
2022/01/27 11:42:56;;;;;;;59.92;43.35;;;31.20;84.40;;;;;;5055245;28;20036;-71
2022/01/27 11:45:34;;;;;;;62.17;45.22;;;31.20;84.40;;;;;;5054677;28;20036;-72
2022/01/27 11:48:10;;;;;;;58.90;39.90;;;31.10;84.00;;;;;;5055029;28;20044;-73
2022/01/27 11:50:53;;;;;;;66.50;46.28;;;31.00;84.10;;;;;;5054644;28;20018;-72
2022/01/27 11:53:32;;;;;;;57.63;39.70;;;30.90;85.00;;;;;;5046671;28;20033;-73
2022/01/27 11:56:03;;;;;;;61.72;38.10;;;30.80;84.70;;;;;;5053518;28;20378;-72
2022/01/27 11:58:29;;;;;;;51.60;36.63;;;30.80;86.20;;;;;;5055029;28;20158;-73
2022/01/27 12:01:11;;;;;;;53.83;37.00;;;30.70;86.10;;;;;;5063087;28;20028;-71
2022/01/27 12:03:39;;;;;;;50.30;33.50;;;30.70;86.80;;;;;;5058997;28;20017;-70
2022/01/27 12:06:24;;;;;;;41.38;28.65;;;30.60;89.10;;;;;;5057446;28;20376;-72
2022/01/27 12:09:10;;;;;;;67.88;54.42;;;30.60;89.20;;;;;;5055262;28;20017;-76
2022/01/27 12:11:51;;;;;;;91.40;72.72;;;30.60;88.10;;;;;;5054031;28;20189;-75
2022/01/27 12:14:23;;;;;;;170.00;128.32;;;30.60;89.50;;;;;;5034948;28;20087;-72
2022/01/27 12:17:07;;;;;;;94.63;64.83;;;30.60;89.50;;;;;;5054470;28;20508;-74
2022/01/27 12:19:48;;;;;;;47.10;34.03;;;30.50;90.00;;;;;;5062674;28;20112;-72
2022/01/27 12:22:16;;;;;;;46.20;33.07;;;30.40;90.40;;;;;;5063498;28;20064;-72
2022/01/27 12:24:58;;;;;;;59.58;44.75;;;30.40;90.50;;;;;;5062752;28;20100;-69
2022/01/27 12:27:28;;;;;;;52.38;38.53;;;30.30;91.20;;;;;;5050268;28;20101;-74
2022/01/27 12:29:57;;;;;;;47.42;34.85;;;30.30;91.20;;;;;;5049283;28;20017;-70
2022/01/27 12:32:24;;;;;;;45.67;32.63;;;30.20;90.90;;;;;;5054108;28;20099;-70
2022/01/27 12:34:56;;;;;;;60.25;38.28;;;30.20;91.10;;;;;;5052914;28;20398;-70
2022/01/27 12:37:37;;;;;;;35.85;26.63;;;30.10;91.20;;;;;;5053778;28;20547;-71
2022/01/27 12:40:06;;;;;;;30.08;24.25;;;30.10;91.60;;;;;;5051219;28;20049;-70
2022/01/27 12:42:38;;;;;;;35.50;24.77;;;30.20;91.60;;;;;;5053232;28;20063;-71
2022/01/27 12:45:14;;;;;;;38.22;26.40;;;30.10;91.20;;;;;;5051419;28;20469;-66
2022/01/27 12:47:42;;;;;;;38.03;26.20;;;30.00;91.40;;;;;;5053488;28;20052;-70
2022/01/27 12:50:15;;;;;;;36.67;26.95;;;30.10;91.70;;;;;;5053861;28;20044;-71
2022/01/27 12:52:45;;;;;;;36.25;24.70;;;30.00;92.00;;;;;;5059006;28;20040;-69
2022/01/27 12:55:15;;;;;;;39.50;26.50;;;30.00;91.60;;;;;;5061755;28;20393;-72
2022/01/27 12:57:42;;;;;;;38.47;27.58;;;30.00;92.30;;;;;;5055698;28;20032;-70
2022/01/27 13:00:12;;;;;;;37.85;27.83;;;30.00;92.20;;;;;;5062726;28;20527;-70
2022/01/27 13:02:40;;;;;;;40.95;26.85;;;29.90;92.30;;;;;;5060551;28;20052;-70
2022/01/27 13:05:08;;;;;;;37.47;25.70;;;29.90;92.70;;;;;;5059838;28;20028;-70
2022/01/27 13:07:41;;;;;;;34.25;25.80;;;29.90;92.90;;;;;;5058045;28;20185;-70
2022/01/27 13:10:12;;;;;;;38.03;25.75;;;29.80;92.60;;;;;;5056957;28;20028;-70
2022/01/27 13:15:12;;;;;;;35.05;26.63;;;29.70;93.40;;;;;;5056904;28;20029;-70
2022/01/27 13:17:46;;;;;;;39.37;26.27;;;29.80;93.40;;;;;;5057256;28;20017;-75
2022/01/27 13:20:22;;;;;;;33.65;25.98;;;29.80;93.70;;;;;;5057863;28;20024;-69
2022/01/27 13:23:12;;;;;;;36.88;26.30;;;29.80;94.20;;;;;;5055000;28;20021;-69
2022/01/27 13:25:44;;;;;;;37.30;26.83;;;29.70;93.80;;;;;;5040993;28;20030;-69
2022/01/27 13:28:17;;;;;;;36.72;26.83;;;29.70;93.90;;;;;;5052777;28;20036;-69
2022/01/27 13:30:45;;;;;;;36.38;25.95;;;29.60;93.80;;;;;;5053272;28;20021;-69
2022/01/27 13:33:16;;;;;;;36.72;26.13;;;29.60;93.90;;;;;;5053047;28;20020;-70
2022/01/27 13:35:43;;;;;;;40.03;27.75;;;29.50;94.30;;;;;;5053339;28;20504;-69